Hauptseite
METAR-TAF:

METAR-TAF

Flughäfen :

Flughafen Phu Quoc

Phú Quốc, Vietnam

Breite: 10-10-18N, Länge: 103-59-28E, Höhe: 11 m

Beobachtung

Neuester Wetterbericht von vor 11 Minuten, um 18:00 UTC
Wind 7 kt aus West/Südwest
Temperatur 29°C
Luftfeuchtigkeit 84%
Luftdruck 1008 hPa
Sichtweite: 9000 m
Aufgelockert bewölkt in der Höhe von 1500 ft

METAR: VVPQ 181800Z 24007KT 9000 SCT015 29/26 Q1008 NOSIG

Zeit: 01:11 (18:11 UTC)

Prognose

Neuester Wetterbericht von vor 1 Stunde und 11 Minuten, um 17:00 UTC
Gültige Prognose vom 18 um 18 UTC bis 19 um 18 UTC
Wind 6 kt aus West
Sichtweite 10 km oder mehr
Aufgelockert bewölkt in der Höhe von 1500 ft

TAF: VVPQ 181700Z 1818/1918 27006KT 9999 SCT015

Wetterbeobachtungen und Prognosen von mehr als 4000 Flughäfen (METAR und TAF Bericht).

Die verfügbaren Stationen werden durch gelbe und rote Markierungen auf der Karte dargestellt.

Führen Sie die Maus auf sie, um den Namen der Station zu sehen.

Darauf klicken, um die Beobachtung von Wetterbeobachtungen und Prognosen zu sehen.

Um die Karte zu ändern : klicken Sie auf den grünen Tasten mit einem schwarzen Kreuz Zum Vergrößern, auf den grünen Button mit einem Gedankenstrich zu verkleinern, oder auf die grünen Pfeile für benachbarte Karten.


METAR-TAF: